Time;durP1;ratioP1;P1;durP2;ratioP2;P2;SDS_P1;SDS_P2;PMS_P1;PMS_P2;Temp;Humidity;BMP_temperature;BMP_pressure;BME280_temperature;BME280_humidity;BME280_pressure;Samples;Min_cycle;Max_cycle;Signal;HPM_P1;HPM_P2
2022/05/26 00:00:27;;;;;;;12.25;3.67;;;19.20;89.30;;;;;;5094887;28;20081;-68
2022/05/26 00:02:56;;;;;;;10.38;2.80;;;19.20;89.30;;;;;;5094414;28;20039;-65
2022/05/26 00:05:22;;;;;;;11.52;3.85;;;19.10;89.30;;;;;;5094598;28;20044;-68
2022/05/26 00:07:47;;;;;;;9.57;2.60;;;19.10;89.40;;;;;;5094789;28;20040;-64
2022/05/26 00:10:13;;;;;;;10.13;2.92;;;19.10;89.40;;;;;;5094287;28;20126;-60
2022/05/26 00:12:38;;;;;;;14.73;3.22;;;19.10;89.40;;;;;;5094667;28;20059;-60
2022/05/26 00:15:05;;;;;;;10.25;3.10;;;19.10;89.40;;;;;;5094228;28;20058;-59
2022/05/26 00:17:31;;;;;;;14.50;3.38;;;19.10;89.50;;;;;;5094460;28;20443;-61
2022/05/26 00:19:58;;;;;;;13.48;3.25;;;19.10;89.50;;;;;;5094411;28;20429;-65
2022/05/26 00:22:24;;;;;;;13.93;3.75;;;19.00;89.50;;;;;;5076156;28;20028;-65
2022/05/26 00:24:50;;;;;;;9.30;3.05;;;19.10;89.60;;;;;;5093942;28;20398;-68
2022/05/26 00:27:16;;;;;;;15.52;4.03;;;19.10;89.60;;;;;;5094088;28;20512;-60
2022/05/26 00:29:41;;;;;;;12.55;3.17;;;19.00;89.60;;;;;;5093965;28;20122;-61
2022/05/26 00:32:07;;;;;;;13.45;4.00;;;19.00;89.70;;;;;;5094158;28;20031;-65
2022/05/26 00:34:34;;;;;;;13.75;3.83;;;19.00;89.70;;;;;;5093920;28;20036;-65
2022/05/26 00:36:59;;;;;;;11.30;3.25;;;19.00;89.80;;;;;;5094264;28;20477;-65
2022/05/26 00:39:25;;;;;;;14.23;3.42;;;19.00;89.80;;;;;;5093321;28;20036;-60
2022/05/26 00:41:58;;;;;;;11.77;4.20;;;19.00;89.90;;;;;;5094127;28;20032;-66
2022/05/26 00:44:24;;;;;;;17.17;3.63;;;18.90;90.00;;;;;;5093771;28;20031;-65
2022/05/26 00:46:54;;;;;;;16.17;3.70;;;18.90;90.00;;;;;;5093530;28;20032;-61
2022/05/26 00:49:35;;;;;;;18.20;4.50;;;19.00;90.00;;;;;;5093616;28;20468;-67
2022/05/26 00:52:02;;;;;;;14.80;3.65;;;18.90;90.00;;;;;;5093666;28;20032;-59
2022/05/26 00:54:27;;;;;;;16.58;3.83;;;18.90;90.00;;;;;;5093343;28;20032;-67
2022/05/26 00:57:14;;;;;;;15.80;3.47;;;18.90;90.10;;;;;;5094100;28;20036;-67
2022/05/26 00:59:49;;;;;;;13.13;4.05;;;18.90;90.00;;;;;;5093616;28;20024;-63
2022/05/26 01:02:18;;;;;;;12.40;3.72;;;18.90;90.10;;;;;;5093491;28;20024;-61
2022/05/26 01:04:50;;;;;;;15.75;4.50;;;18.90;90.20;;;;;;5093385;28;20028;-62
2022/05/26 01:07:18;;;;;;;;;;;18.90;90.30;;;;;;5093704;28;20442;-65
2022/05/26 01:09:44;;;;;;;13.27;3.30;;;18.90;90.20;;;;;;5093442;28;19912;-64
2022/05/26 01:12:09;;;;;;;17.83;4.13;;;18.90;90.30;;;;;;5093472;28;20051;-59
2022/05/26 01:14:41;;;;;;;16.27;3.92;;;18.80;90.40;;;;;;5093249;28;20489;-66
2022/05/26 01:17:47;;;;;;;16.90;4.85;;;18.80;90.30;;;;;;5093401;28;20024;-66
2022/05/26 01:20:23;;;;;;;17.60;4.10;;;18.80;90.30;;;;;;5093073;28;20040;-59
2022/05/26 01:22:48;;;;;;;18.13;4.63;;;18.80;90.40;;;;;;5093212;28;20028;-67
2022/05/26 01:25:30;;;;;;;17.90;4.32;;;18.80;90.40;;;;;;5093173;28;20362;-67
2022/05/26 01:28:17;;;;;;;15.73;3.95;;;18.70;90.40;;;;;;5093384;28;20032;-68
2022/05/26 01:31:03;;;;;;;19.10;4.80;;;18.80;90.50;;;;;;5093238;28;20032;-65
2022/05/26 01:33:47;;;;;;;13.80;3.75;;;18.70;90.50;;;;;;5075291;28;20047;-68
2022/05/26 01:36:41;;;;;;;18.80;3.92;;;18.70;90.50;;;;;;5092716;28;20051;-68
2022/05/26 01:39:30;;;;;;;16.75;3.97;;;18.70;90.40;;;;;;5093165;28;20040;-59
2022/05/26 01:41:55;;;;;;;16.55;4.70;;;18.70;90.40;;;;;;5092827;28;20047;-61
2022/05/26 01:44:45;;;;;;;13.98;3.85;;;18.70;90.50;;;;;;5093260;28;20044;-67
2022/05/26 01:47:41;;;;;;;16.35;4.15;;;18.70;90.60;;;;;;5093110;28;20032;-68
2022/05/26 01:50:27;;;;;;;17.48;4.40;;;18.70;90.50;;;;;;5092945;28;20031;-65
2022/05/26 01:53:27;;;;;;;19.73;4.10;;;18.60;90.40;;;;;;5092950;28;20022;-65
2022/05/26 01:56:09;;;;;;;14.63;3.85;;;18.70;90.40;;;;;;4991327;28;20082;-68
2022/05/26 01:58:41;;;;;;;18.25;5.05;;;18.60;90.50;;;;;;5086203;28;20510;-68
2022/05/26 02:01:11;;;;;;;17.73;4.07;;;18.60;90.50;;;;;;5096860;28;20032;-67
2022/05/26 02:03:39;;;;;;;14.35;4.18;;;18.60;90.50;;;;;;5097030;28;20512;-65
2022/05/26 02:06:15;;;;;;;13.93;4.47;;;18.60;90.60;;;;;;5096936;28;20036;-68
2022/05/26 02:09:06;;;;;;;13.93;3.97;;;18.50;90.70;;;;;;5096965;28;20016;-68
2022/05/26 02:11:35;;;;;;;19.15;4.30;;;18.50;91.00;;;;;;5084817;28;20044;-68
2022/05/26 02:14:09;;;;;;;17.55;4.38;;;18.50;90.80;;;;;;5096596;28;20034;-65
2022/05/26 02:16:58;;;;;;;14.98;4.07;;;18.50;90.90;;;;;;5096638;28;20534;-67
2022/05/26 02:19:32;;;;;;;19.08;4.53;;;18.50;90.80;;;;;;5096540;28;20028;-66
2022/05/26 02:22:18;;;;;;;20.30;4.68;;;18.40;91.20;;;;;;5096501;28;20090;-67
2022/05/26 02:24:58;;;;;;;16.95;4.50;;;18.40;90.90;;;;;;5096662;28;20054;-67
2022/05/26 02:27:26;;;;;;;18.40;4.45;;;18.50;91.00;;;;;;5096609;28;20040;-64
2022/05/26 02:29:53;;;;;;;19.23;4.82;;;18.40;91.00;;;;;;5096584;28;20093;-68
2022/05/26 02:32:23;;;;;;;14.18;4.53;;;18.40;91.00;;;;;;5096412;28;20035;-66
2022/05/26 02:34:52;;;;;;;18.50;4.70;;;18.40;91.00;;;;;;5096088;28;20036;-67
2022/05/26 02:37:19;;;;;;;19.58;4.43;;;18.40;91.00;;;;;;5096351;28;20040;-68
2022/05/26 02:39:45;;;;;;;16.42;4.57;;;18.30;91.00;;;;;;5096283;28;20036;-67
2022/05/26 02:42:11;;;;;;;19.67;5.22;;;18.40;91.00;;;;;;5096241;28;20024;-66
2022/05/26 02:44:37;;;;;;;18.73;4.78;;;18.30;91.00;;;;;;5096276;28;20032;-68
2022/05/26 02:47:40;;;;;;;20.02;5.05;;;18.40;91.10;;;;;;5096072;28;20055;-65
2022/05/26 02:50:30;;;;;;;18.05;4.95;;;18.30;90.90;;;;;;5092201;28;20051;-64
2022/05/26 02:53:09;;;;;;;18.10;4.45;;;18.30;91.00;;;;;;5095853;28;20119;-66
2022/05/26 02:56:12;;;;;;;19.48;5.15;;;18.30;91.10;;;;;;5096059;28;20043;-63
2022/05/26 02:59:04;;;;;;;17.50;4.90;;;18.20;91.00;;;;;;5073901;28;20048;-64
2022/05/26 03:01:40;;;;;;;23.13;4.93;;;18.20;91.00;;;;;;5095764;28;20044;-65
2022/05/26 03:04:14;;;;;;;18.83;4.78;;;18.20;91.10;;;;;;5095462;28;20023;-67
2022/05/26 03:06:49;;;;;;;19.13;4.65;;;18.20;91.20;;;;;;5095702;28;20032;-67
2022/05/26 03:09:15;;;;;;;19.80;5.40;;;18.20;91.20;;;;;;5095117;28;20031;-65
2022/05/26 03:11:47;;;;;;;18.48;5.38;;;18.10;91.20;;;;;;5095859;28;20024;-65
2022/05/26 03:14:14;;;;;;;18.30;5.68;;;18.10;91.20;;;;;;5095560;28;20036;-62
2022/05/26 03:16:41;;;;;;;17.50;5.65;;;18.20;91.30;;;;;;5095662;28;20081;-68
2022/05/26 03:19:06;;;;;;;16.73;5.07;;;18.20;91.20;;;;;;5095438;28;20066;-68
2022/05/26 03:21:32;;;;;;;20.67;5.38;;;18.20;91.30;;;;;;5095387;28;20028;-65
2022/05/26 03:23:57;;;;;;;16.77;4.20;;;18.10;91.30;;;;;;5095295;28;20024;-63
2022/05/26 03:26:23;;;;;;;18.88;5.72;;;18.10;91.20;;;;;;5095634;28;20039;-60
2022/05/26 03:28:48;;;;;;;19.67;5.80;;;18.10;91.30;;;;;;5095385;28;20040;-66
2022/05/26 03:31:14;;;;;;;15.77;4.65;;;18.10;91.30;;;;;;5095332;28;20032;-66
2022/05/26 03:41:52;;;;;;;20.40;5.63;;;18.10;91.50;;;;;;5074770;28;20112;-67
2022/05/26 03:44:19;;;;;;;19.33;5.18;;;18.10;91.50;;;;;;5074897;28;20449;-65
2022/05/26 03:46:45;;;;;;;16.95;5.15;;;18.00;91.50;;;;;;5072404;28;20563;-61
2022/05/26 03:49:10;;;;;;;17.55;4.88;;;18.00;91.50;;;;;;5065176;28;20021;-62
2022/05/26 03:51:36;;;;;;;18.45;4.85;;;18.00;91.50;;;;;;5054469;28;20385;-58
2022/05/26 03:54:01;;;;;;;23.35;6.25;;;18.00;91.50;;;;;;5054719;28;20041;-59
2022/05/26 03:56:27;;;;;;;18.48;4.57;;;18.00;91.60;;;;;;5037121;28;20458;-58
2022/05/26 03:58:53;;;;;;;18.67;5.32;;;18.00;91.60;;;;;;5054344;28;20520;-59
2022/05/26 04:01:19;;;;;;;21.95;6.10;;;18.00;91.60;;;;;;5054114;28;20033;-60
2022/05/26 04:03:45;;;;;;;17.65;4.53;;;18.00;91.60;;;;;;5054069;28;20543;-59
2022/05/26 04:06:10;;;;;;;26.92;5.55;;;18.00;91.60;;;;;;5054388;28;20037;-61
2022/05/26 04:08:36;;;;;;;19.30;5.13;;;18.00;91.70;;;;;;5054168;28;20039;-59
2022/05/26 04:11:01;;;;;;;18.88;5.68;;;18.00;91.70;;;;;;5054052;28;20060;-59
2022/05/26 04:13:30;;;;;;;16.90;5.28;;;18.00;91.80;;;;;;5054124;28;20045;-60
2022/05/26 04:15:56;;;;;;;18.52;5.20;;;18.00;91.80;;;;;;5053813;28;20037;-59
2022/05/26 04:18:21;;;;;;;18.98;5.68;;;18.00;91.80;;;;;;5053842;28;20390;-65
2022/05/26 04:20:47;;;;;;;19.15;5.47;;;18.00;91.80;;;;;;5052898;28;20035;-58
2022/05/26 04:23:13;;;;;;;20.15;5.82;;;17.90;91.80;;;;;;5053927;28;20028;-58
2022/05/26 04:25:38;;;;;;;18.08;5.43;;;17.90;91.80;;;;;;5053976;28;20151;-58
2022/05/26 04:28:04;;;;;;;20.75;5.90;;;17.90;91.80;;;;;;5053873;28;20037;-58
2022/05/26 04:30:30;;;;;;;16.42;5.18;;;17.90;91.80;;;;;;5053314;28;20037;-58
2022/05/26 04:32:56;;;;;;;18.00;5.25;;;17.90;91.90;;;;;;5053732;28;20040;-59
2022/05/26 04:35:21;;;;;;;18.60;5.65;;;17.90;91.90;;;;;;5053846;28;20083;-58
2022/05/26 04:37:48;;;;;;;18.73;5.45;;;17.90;91.90;;;;;;5053966;28;20056;-58
2022/05/26 04:40:13;;;;;;;21.98;5.65;;;17.90;92.00;;;;;;5053657;28;20029;-58
2022/05/26 04:42:39;;;;;;;22.77;6.35;;;17.90;91.90;;;;;;5053878;28;20083;-59
2022/05/26 04:45:07;;;;;;;17.90;6.25;;;17.90;92.00;;;;;;5053252;28;20087;-58
2022/05/26 04:47:33;;;;;;;21.92;6.78;;;17.90;92.00;;;;;;5053693;28;20078;-58
2022/05/26 04:49:58;;;;;;;20.17;6.18;;;17.90;92.00;;;;;;5053472;28;20037;-59
2022/05/26 04:52:25;;;;;;;17.23;6.18;;;17.90;92.00;;;;;;5053556;28;20029;-58
2022/05/26 04:54:52;;;;;;;19.42;6.20;;;17.80;92.00;;;;;;5055481;28;20027;-58
2022/05/26 04:57:23;;;;;;;23.70;7.20;;;17.80;92.10;;;;;;5062914;28;20040;-58
2022/05/26 04:59:50;;;;;;;18.80;7.40;;;17.90;92.10;;;;;;5067390;28;20078;-58
2022/05/26 05:02:17;;;;;;;21.08;7.80;;;17.90;92.10;;;;;;5073094;28;20033;-58
2022/05/26 05:04:44;;;;;;;20.13;6.78;;;17.90;92.10;;;;;;5073174;28;20040;-58
2022/05/26 05:07:11;;;;;;;19.38;6.30;;;17.90;92.00;;;;;;5072941;28;20032;-60
2022/05/26 05:09:38;;;;;;;19.88;7.90;;;17.90;92.00;;;;;;5073038;28;20071;-58
2022/05/26 05:12:05;;;;;;;21.98;6.78;;;18.00;91.90;;;;;;5072556;28;20428;-59
2022/05/26 05:14:51;;;;;;;21.75;7.32;;;18.00;91.90;;;;;;5072595;28;20180;-66
2022/05/26 05:17:18;;;;;;;20.35;8.00;;;17.90;91.80;;;;;;5073276;28;20481;-60
2022/05/26 05:19:45;;;;;;;19.00;6.20;;;18.00;91.90;;;;;;5072912;28;20051;-60
2022/05/26 05:22:31;;;;;;;23.67;7.60;;;18.00;91.80;;;;;;5072655;28;20063;-63
2022/05/26 05:25:11;;;;;;;18.45;7.00;;;18.00;91.80;;;;;;5068727;28;20033;-65
2022/05/26 05:27:42;;;;;;;16.70;6.75;;;18.00;91.90;;;;;;5089526;28;20059;-65
2022/05/26 05:30:15;;;;;;;14.60;6.47;;;18.00;91.90;;;;;;5072354;28;20072;-60
2022/05/26 05:32:48;;;;;;;16.30;6.30;;;18.00;91.90;;;;;;5072652;28;20054;-58
2022/05/26 05:35:18;;;;;;;15.80;6.00;;;18.10;91.90;;;;;;5072650;28;20060;-65
2022/05/26 05:37:44;;;;;;;16.40;5.68;;;18.10;92.00;;;;;;5072790;28;20029;-59
2022/05/26 05:40:10;;;;;;;20.88;5.85;;;18.10;91.90;;;;;;5072305;28;20047;-59
2022/05/26 05:42:36;;;;;;;18.08;5.90;;;18.10;92.20;;;;;;5072030;28;20032;-67
2022/05/26 05:45:02;;;;;;;20.38;6.45;;;18.20;92.20;;;;;;5072343;28;20036;-62
2022/05/26 05:47:27;;;;;;;18.70;6.65;;;18.20;92.30;;;;;;5072299;28;20400;-58
2022/05/26 05:49:53;;;;;;;20.00;6.68;;;18.30;92.50;;;;;;5072691;28;20446;-58
2022/05/26 05:52:22;;;;;;;19.17;5.75;;;18.30;92.50;;;;;;5070949;28;20060;-60
2022/05/26 05:54:48;;;;;;;16.40;5.85;;;18.40;92.40;;;;;;5070824;28;20029;-61
2022/05/26 05:57:13;;;;;;;20.90;6.22;;;18.40;92.20;;;;;;5071486;28;20050;-60
2022/05/26 05:59:39;;;;;;;16.25;5.90;;;18.40;92.00;;;;;;5068365;28;20031;-62
2022/05/26 06:02:06;;;;;;;18.10;6.00;;;18.50;91.90;;;;;;5071764;28;20063;-67
2022/05/26 06:04:31;;;;;;;14.70;4.78;;;18.60;91.80;;;;;;5072496;28;20028;-64
2022/05/26 06:06:58;;;;;;;13.30;5.25;;;18.60;91.80;;;;;;5071687;28;20067;-66
2022/05/26 06:09:24;;;;;;;19.20;5.93;;;18.60;91.60;;;;;;5069018;28;20060;-68
2022/05/26 06:11:50;;;;;;;13.23;4.88;;;18.80;91.60;;;;;;5074639;28;20059;-64
2022/05/26 06:14:16;;;;;;;16.00;4.72;;;18.80;91.40;;;;;;5072313;28;20039;-65
2022/05/26 06:16:42;;;;;;;14.43;4.68;;;18.80;91.20;;;;;;5072181;28;20054;-67
2022/05/26 06:19:08;;;;;;;12.77;4.38;;;18.90;91.30;;;;;;5072354;28;20416;-67
2022/05/26 06:21:36;;;;;;;14.32;4.55;;;18.90;91.20;;;;;;5071383;28;20024;-68
2022/05/26 06:24:02;;;;;;;11.45;3.30;;;19.00;91.20;;;;;;5069296;28;20029;-66
2022/05/26 06:26:28;;;;;;;11.57;3.45;;;19.00;90.50;;;;;;5070594;28;20496;-66
2022/05/26 06:31:39;;;;;;;14.30;4.32;;;19.10;90.10;;;;;;5072321;28;20075;-67
2022/05/26 06:39:33;;;;;;;14.45;3.90;;;19.20;89.70;;;;;;5071230;28;20070;-60
2022/05/26 06:42:08;;;;;;;14.55;3.40;;;19.20;89.60;;;;;;5090220;28;20074;-65
2022/05/26 06:44:38;;;;;;;10.80;3.00;;;19.20;89.60;;;;;;5072314;28;20497;-64
2022/05/26 06:47:05;;;;;;;14.57;3.70;;;19.30;89.70;;;;;;5074277;28;20040;-66
2022/05/26 06:49:33;;;;;;;11.57;3.40;;;19.30;89.20;;;;;;5057791;28;20397;-62
2022/05/26 06:51:59;;;;;;;10.93;3.15;;;19.40;89.10;;;;;;5075078;28;20085;-66
2022/05/26 06:54:25;;;;;;;10.15;3.35;;;19.40;88.70;;;;;;5057488;28;20036;-66
2022/05/26 06:56:50;;;;;;;14.30;3.13;;;19.40;88.70;;;;;;5056248;28;20039;-66
2022/05/26 06:59:16;;;;;;;11.15;3.10;;;19.40;88.60;;;;;;5080325;28;20358;-66
2022/05/26 07:01:41;;;;;;;9.68;2.95;;;19.50;88.50;;;;;;5074431;28;20039;-65
2022/05/26 07:04:07;;;;;;;9.82;3.00;;;19.50;88.30;;;;;;5078062;28;20495;-67
2022/05/26 07:06:33;;;;;;;10.00;2.80;;;19.60;88.60;;;;;;5072952;28;20024;-64
2022/05/26 07:08:58;;;;;;;11.38;3.83;;;19.60;88.10;;;;;;5072860;28;20035;-65
2022/05/26 07:11:24;;;;;;;11.70;3.53;;;19.60;87.80;;;;;;5074124;28;20028;-61
2022/05/26 07:13:50;;;;;;;8.40;3.05;;;19.70;87.60;;;;;;5080343;28;20050;-64
2022/05/26 07:16:16;;;;;;;8.98;2.55;;;19.70;87.40;;;;;;5057527;28;20497;-65
2022/05/26 07:18:42;;;;;;;12.23;3.55;;;19.70;87.30;;;;;;5075164;28;20024;-67
2022/05/26 07:21:09;;;;;;;11.82;3.17;;;19.80;87.40;;;;;;5074628;28;20028;-65
2022/05/26 07:23:35;;;;;;;9.52;3.45;;;19.80;87.70;;;;;;5074796;28;20108;-62
2022/05/26 07:26:09;;;;;;;10.82;3.60;;;19.90;86.90;;;;;;5074469;28;20442;-64
2022/05/26 07:28:36;;;;;;;14.77;4.47;;;19.90;87.00;;;;;;5074436;28;20029;-64
2022/05/26 07:31:01;;;;;;;14.38;4.20;;;19.90;87.10;;;;;;5074216;28;20029;-67
2022/05/26 07:33:27;;;;;;;11.02;3.83;;;20.00;86.90;;;;;;5074185;28;20181;-66
2022/05/26 07:35:53;;;;;;;11.75;3.97;;;20.00;87.30;;;;;;5072953;28;20029;-66
2022/05/26 07:41:18;;;;;;;12.98;3.97;;;20.00;86.70;;;;;;5074924;28;20051;-67
2022/05/26 07:43:48;;;;;;;11.93;4.72;;;20.10;86.50;;;;;;5077498;28;20025;-65
2022/05/26 07:46:16;;;;;;;13.35;4.07;;;20.10;86.60;;;;;;5080732;28;20032;-65
2022/05/26 07:48:42;;;;;;;12.25;3.80;;;20.20;87.20;;;;;;5080416;28;20028;-64
2022/05/26 07:51:07;;;;;;;10.88;3.83;;;20.20;86.90;;;;;;5080789;28;20025;-62
2022/05/26 07:53:33;;;;;;;11.10;3.65;;;20.20;85.90;;;;;;5080712;28;20035;-63
2022/05/26 07:56:01;;;;;;;14.07;3.90;;;20.30;85.70;;;;;;5086326;28;20075;-60
2022/05/26 07:58:27;;;;;;;10.32;4.00;;;20.30;85.40;;;;;;5073480;28;20032;-61
2022/05/26 08:00:54;;;;;;;10.32;3.40;;;20.30;85.30;;;;;;5077320;28;20024;-62
2022/05/26 08:03:20;;;;;;;10.70;3.40;;;20.30;85.30;;;;;;5071361;28;20037;-61
2022/05/26 08:05:46;;;;;;;13.80;3.55;;;20.30;85.10;;;;;;5067975;28;20408;-61
2022/05/26 08:08:12;;;;;;;10.48;3.42;;;20.40;85.00;;;;;;5070720;28;20027;-59
2022/05/26 08:10:39;;;;;;;15.85;3.85;;;20.40;85.60;;;;;;5072717;28;20064;-60
2022/05/26 08:13:06;;;;;;;11.60;3.97;;;20.40;85.10;;;;;;5072806;28;20044;-65
2022/05/26 08:15:31;;;;;;;12.05;5.07;;;20.50;85.30;;;;;;5078610;28;20032;-68
2022/05/26 08:17:57;;;;;;;8.48;3.35;;;20.50;85.30;;;;;;5072593;28;20421;-65
2022/05/26 08:20:23;;;;;;;9.32;5.07;;;20.50;85.10;;;;;;5078709;28;20024;-67
2022/05/26 08:22:49;;;;;;;13.35;3.92;;;20.60;85.20;;;;;;5069880;28;20028;-61
2022/05/26 08:25:14;;;;;;;10.68;4.03;;;20.60;84.40;;;;;;5080990;28;20572;-61
2022/05/26 08:27:40;;;;;;;12.73;3.85;;;20.70;84.40;;;;;;5071690;28;20090;-67
2022/05/26 08:30:07;;;;;;;9.93;3.50;;;20.70;84.30;;;;;;5078494;28;20033;-67
2022/05/26 08:32:32;;;;;;;8.65;3.60;;;20.70;84.30;;;;;;5072700;28;20025;-65
2022/05/26 08:35:00;;;;;;;5.80;3.10;;;20.70;84.20;;;;;;5071059;28;20028;-64
2022/05/26 08:37:26;;;;;;;13.38;3.70;;;20.70;84.00;;;;;;5074982;28;20168;-64
2022/05/26 08:39:52;;;;;;;10.02;3.60;;;20.80;83.80;;;;;;5070121;28;20477;-65
2022/05/26 08:42:27;;;;;;;9.80;4.05;;;20.80;83.80;;;;;;5072073;28;20489;-68
2022/05/26 08:44:57;;;;;;;12.85;4.15;;;20.80;83.50;;;;;;5077692;28;20028;-66
2022/05/26 08:47:35;;;;;;;11.68;4.32;;;20.80;83.40;;;;;;5080605;28;20082;-67
2022/05/26 08:50:13;;;;;;;16.30;4.47;;;20.90;83.50;;;;;;5057291;28;20382;-68
2022/05/26 08:53:00;;;;;;;11.60;4.28;;;20.90;83.20;;;;;;5082062;28;20511;-60
2022/05/26 08:55:39;;;;;;;12.65;3.97;;;20.90;83.00;;;;;;5068098;28;20362;-66
2022/05/26 08:58:17;;;;;;;11.45;4.80;;;20.90;83.10;;;;;;5088486;28;20104;-66
2022/05/26 09:00:46;;;;;;;12.50;3.92;;;20.90;82.90;;;;;;5064980;28;20056;-70
2022/05/26 09:03:30;;;;;;;11.70;3.85;;;21.00;83.00;;;;;;5073963;28;20032;-68
2022/05/26 09:06:05;;;;;;;11.48;3.60;;;21.00;82.80;;;;;;5070679;28;20024;-65
2022/05/26 09:14:27;;;;;;;24.30;4.07;;;21.10;82.70;;;;;;5071297;28;20047;-70
2022/05/26 09:17:03;;;;;;;8.77;2.97;;;21.10;83.00;;;;;;5062142;28;20558;-66
2022/05/26 09:19:44;;;;;;;12.23;3.75;;;21.10;83.10;;;;;;5066109;28;20032;-68
2022/05/26 09:22:29;;;;;;;10.65;3.83;;;21.10;83.00;;;;;;5069321;28;20032;-67
2022/05/26 09:24:57;;;;;;;11.93;4.03;;;21.20;83.00;;;;;;5069287;28;20081;-69
2022/05/26 09:27:30;;;;;;;11.63;4.18;;;21.20;82.60;;;;;;5069786;28;20070;-67
2022/05/26 09:30:14;;;;;;;9.85;3.78;;;21.30;82.30;;;;;;5069913;28;20397;-60
2022/05/26 09:32:39;;;;;;;11.23;3.53;;;21.30;82.20;;;;;;5066360;28;20017;-68
2022/05/26 09:35:22;;;;;;;8.57;3.20;;;21.30;82.00;;;;;;5066684;28;20029;-68
2022/05/26 09:37:51;;;;;;;10.25;4.00;;;21.30;82.30;;;;;;5047162;28;20025;-63
2022/05/26 09:40:26;;;;;;;8.13;3.10;;;21.30;82.70;;;;;;5069723;28;20392;-66
2022/05/26 09:43:02;;;;;;;11.98;3.33;;;21.30;82.60;;;;;;5069712;28;20115;-65
2022/05/26 09:45:35;;;;;;;9.27;3.42;;;21.30;82.70;;;;;;5066708;28;20033;-64
2022/05/26 09:48:01;;;;;;;7.80;2.58;;;21.30;82.60;;;;;;5067527;28;20078;-61
2022/05/26 09:50:52;;;;;;;10.40;3.28;;;21.30;82.60;;;;;;5075315;28;20056;-63
2022/05/26 09:53:31;;;;;;;9.50;3.13;;;21.40;82.40;;;;;;5070513;28;20039;-58
2022/05/26 09:55:57;;;;;;;11.65;2.67;;;21.40;82.10;;;;;;5070308;28;20059;-66
2022/05/26 09:58:39;;;;;;;9.27;2.63;;;21.40;82.10;;;;;;5053300;28;20533;-65
2022/05/26 10:01:29;;;;;;;9.95;2.63;;;21.40;82.00;;;;;;5069614;28;20389;-67
2022/05/26 10:04:20;;;;;;;9.60;2.92;;;21.40;81.70;;;;;;5069967;28;20039;-67
2022/05/26 10:06:49;;;;;;;7.55;1.85;;;21.40;81.60;;;;;;5072218;28;20052;-65
2022/05/26 10:09:49;;;;;;;8.38;2.25;;;21.40;81.80;;;;;;5075947;28;20107;-66
2022/05/26 10:12:43;;;;;;;6.90;2.30;;;21.40;81.70;;;;;;5068121;28;20032;-65
2022/05/26 10:15:23;;;;;;;5.93;2.20;;;21.40;81.50;;;;;;5065627;28;20346;-69
2022/05/26 10:18:07;;;;;;;5.53;2.08;;;21.50;81.50;;;;;;5067329;28;20083;-64
2022/05/26 10:20:51;;;;;;;6.72;2.00;;;21.50;81.40;;;;;;5070644;28;20032;-61
2022/05/26 10:23:38;;;;;;;8.52;2.08;;;21.50;81.50;;;;;;5074144;28;20094;-68
2022/05/26 10:26:09;;;;;;;6.65;2.63;;;21.50;81.50;;;;;;5074139;28;20028;-70
2022/05/26 10:28:38;;;;;;;9.05;2.55;;;21.50;82.20;;;;;;5071441;28;20033;-63
2022/05/26 10:31:38;;;;;;;7.15;2.53;;;21.50;82.10;;;;;;5070907;28;20032;-64
2022/05/26 10:34:26;;;;;;;7.65;2.85;;;21.60;83.60;;;;;;5068077;28;20048;-66
2022/05/26 10:37:40;;;;;;;10.85;3.75;;;21.60;86.00;;;;;;5072758;28;20032;-62
2022/05/26 10:40:32;;;;;;;9.52;3.13;;;21.60;86.40;;;;;;5058220;28;20087;-67
2022/05/26 10:43:10;;;;;;;11.67;3.63;;;21.60;86.50;;;;;;5031487;28;20045;-68
2022/05/26 10:45:42;;;;;;;10.57;3.25;;;21.70;86.70;;;;;;5073980;28;20029;-61
2022/05/26 10:48:36;;;;;;;8.65;2.58;;;21.70;86.20;;;;;;5066841;28;20036;-65
2022/05/26 10:51:24;;;;;;;12.00;3.03;;;21.70;85.20;;;;;;5062621;28;20610;-67
2022/05/26 10:53:57;;;;;;;9.45;2.33;;;21.70;84.40;;;;;;5070217;28;20036;-68
2022/05/26 10:56:31;;;;;;;11.90;2.90;;;21.70;84.10;;;;;;5071895;28;20044;-62
2022/05/26 10:59:16;;;;;;;11.20;2.97;;;21.70;84.30;;;;;;5072437;28;20071;-64
2022/05/26 11:01:48;;;;;;;6.85;2.97;;;21.70;84.70;;;;;;5071084;28;20417;-63
2022/05/26 11:04:35;;;;;;;11.02;3.40;;;21.80;86.30;;;;;;5071443;28;20036;-64
2022/05/26 11:07:05;;;;;;;10.45;3.90;;;21.80;86.50;;;;;;5072088;28;20047;-61
2022/05/26 11:09:51;;;;;;;9.88;4.85;;;21.80;88.90;;;;;;5072309;28;20025;-69
2022/05/26 11:12:33;;;;;;;8.75;4.78;;;21.80;89.30;;;;;;5077028;28;20496;-68
2022/05/26 11:18:07;;;;;;;13.27;4.70;;;21.80;89.50;;;;;;5064831;28;20083;-69
2022/05/26 11:20:42;;;;;;;12.05;5.95;;;21.80;88.40;;;;;;5074874;28;20128;-68
2022/05/26 11:23:08;;;;;;;10.13;4.55;;;21.80;88.40;;;;;;5073449;28;20035;-67
2022/05/26 11:25:58;;;;;;;14.85;4.00;;;21.80;87.00;;;;;;5069070;28;20028;-65
2022/05/26 11:28:40;;;;;;;8.95;3.63;;;21.80;85.90;;;;;;5063592;28;20028;-61
2022/05/26 11:36:50;;;;;;;11.15;2.72;;;21.90;84.20;;;;;;5070783;28;20094;-68
2022/05/26 11:39:38;;;;;;;10.75;2.88;;;21.90;83.60;;;;;;5070955;28;20558;-62
2022/05/26 11:42:10;;;;;;;8.55;2.88;;;21.90;83.00;;;;;;5067436;28;20032;-67
2022/05/26 11:44:44;;;;;;;15.85;3.17;;;21.90;82.30;;;;;;5071021;28;20456;-65
2022/05/26 11:47:31;;;;;;;16.63;3.35;;;21.90;81.90;;;;;;5069096;28;20556;-66
2022/05/26 11:49:57;;;;;;;10.13;2.80;;;22.00;82.00;;;;;;5058234;28;20086;-63
2022/05/26 11:52:27;;;;;;;10.43;2.30;;;21.90;81.40;;;;;;5068809;28;20039;-64
2022/05/26 11:54:52;;;;;;;12.30;2.58;;;21.90;81.10;;;;;;5071382;28;20036;-70
2022/05/26 11:57:34;;;;;;;9.13;1.70;;;22.00;81.40;;;;;;5069753;28;20445;-65
2022/05/26 12:00:15;;;;;;;8.63;2.20;;;22.00;80.50;;;;;;5069261;28;20025;-64
2022/05/26 12:02:46;;;;;;;8.40;2.28;;;22.00;80.40;;;;;;5071009;28;20033;-67
2022/05/26 12:05:30;;;;;;;12.93;2.35;;;22.00;80.00;;;;;;5070946;28;20158;-68
2022/05/26 12:08:05;;;;;;;4.85;1.83;;;22.00;79.70;;;;;;5076057;28;20029;-71
2022/05/26 12:10:39;;;;;;;8.90;2.70;;;22.00;79.20;;;;;;5067923;28;20055;-61
2022/05/26 12:13:20;;;;;;;7.90;4.35;;;22.00;78.70;;;;;;5065013;28;20377;-71
2022/05/26 12:16:06;;;;;;;7.15;4.25;;;22.10;77.60;;;;;;5046700;28;20481;-59
2022/05/26 12:18:55;;;;;;;10.55;4.22;;;22.10;77.10;;;;;;5067960;28;20060;-67
2022/05/26 12:21:30;;;;;;;11.23;4.78;;;22.10;77.10;;;;;;5058739;28;20492;-68
2022/05/26 12:23:57;;;;;;;6.97;3.58;;;22.10;76.80;;;;;;5065783;28;20029;-67
2022/05/26 12:26:25;;;;;;;8.50;3.75;;;22.10;76.50;;;;;;5068066;28;20024;-67
2022/05/26 12:28:51;;;;;;;13.07;2.97;;;22.10;76.40;;;;;;5064253;28;20548;-69
2022/05/26 12:31:16;;;;;;;10.02;3.60;;;22.10;76.60;;;;;;5066524;28;20025;-70
2022/05/26 12:34:02;;;;;;;10.32;2.85;;;22.10;76.10;;;;;;5050409;28;20023;-69
2022/05/26 12:36:51;;;;;;;8.88;2.47;;;22.10;75.70;;;;;;5073082;28;20073;-70
2022/05/26 12:39:47;;;;;;;6.25;2.10;;;22.20;75.70;;;;;;5072882;28;20031;-65
2022/05/26 12:42:27;;;;;;;5.97;1.88;;;22.20;75.50;;;;;;5064325;28;20361;-62
2022/05/26 12:45:09;;;;;;;7.72;2.30;;;22.20;75.50;;;;;;5063688;28;20174;-62
2022/05/26 12:47:58;;;;;;;7.35;2.13;;;22.20;75.20;;;;;;5074343;28;20045;-69
2022/05/26 12:50:25;;;;;;;7.75;1.77;;;22.20;75.00;;;;;;5066555;28;20032;-66
2022/05/26 12:52:57;;;;;;;8.32;2.15;;;22.20;74.70;;;;;;5072275;28;20107;-61
2022/05/26 12:55:45;;;;;;;4.05;1.58;;;22.20;74.80;;;;;;5077133;28;20075;-65
2022/05/26 12:58:31;;;;;;;4.07;1.00;;;22.30;74.80;;;;;;5066090;28;20036;-61
2022/05/26 13:01:01;;;;;;;6.40;1.67;;;22.30;74.80;;;;;;5068911;28;20039;-70
2022/05/26 13:03:39;;;;;;;6.70;1.52;;;22.30;74.40;;;;;;5067510;28;20043;-70
2022/05/26 13:06:09;;;;;;;6.47;1.95;;;22.30;74.20;;;;;;5077505;28;20047;-70
2022/05/26 13:09:01;;;;;;;5.60;1.40;;;22.30;73.90;;;;;;5053820;28;20032;-63
2022/05/26 13:11:33;;;;;;;7.90;1.38;;;22.30;73.70;;;;;;5059403;28;20062;-71
2022/05/26 13:14:03;;;;;;;4.35;0.68;;;22.30;73.60;;;;;;5070820;28;20115;-70
2022/05/26 13:16:43;;;;;;;6.00;1.73;;;22.30;73.60;;;;;;5074531;28;20033;-70
2022/05/26 13:19:16;;;;;;;5.15;1.10;;;22.40;73.80;;;;;;5065882;28;20106;-61
2022/05/26 13:21:54;;;;;;;7.03;1.30;;;22.40;73.70;;;;;;5049171;28;20036;-72
2022/05/26 13:24:33;;;;;;;5.55;1.55;;;22.40;73.70;;;;;;5068831;28;20021;-67
2022/05/26 13:27:02;;;;;;;7.90;1.23;;;22.40;73.60;;;;;;5057297;28;20044;-72
2022/05/26 13:29:31;;;;;;;6.20;1.00;;;22.40;73.50;;;;;;5078227;28;20103;-62
2022/05/26 13:35:09;;;;;;;3.55;0.88;;;22.40;73.60;;;;;;5073723;28;20071;-70
2022/05/26 13:37:43;;;;;;;6.95;1.00;;;22.40;74.20;;;;;;5072339;28;20025;-67
2022/05/26 13:40:17;;;;;;;10.23;1.10;;;22.40;74.00;;;;;;5070001;28;20028;-71
2022/05/26 13:42:48;;;;;;;2.83;0.80;;;22.40;73.90;;;;;;5070928;28;20024;-64
2022/05/26 13:45:31;;;;;;;8.70;1.35;;;22.50;73.80;;;;;;5069958;28;20056;-66